createdAt,value
2023-10-28T07:01:22.702Z,9.302992
2023-10-28T07:02:22.880Z,9.303021
2023-10-28T07:03:23.064Z,9.303044
2023-10-28T07:04:22.940Z,9.303031
2023-10-28T07:05:22.799Z,9.302971
2023-10-28T07:06:22.949Z,9.302894
2023-10-28T07:07:23.135Z,9.302781
2023-10-28T07:08:22.995Z,9.302759
2023-10-28T07:09:22.804Z,9.302962
2023-10-28T07:10:22.764Z,9.303007
2023-10-28T07:11:22.704Z,9.303057
2023-10-28T07:12:23.274Z,9.303096
2023-10-28T07:13:22.618Z,9.303110
2023-10-28T07:14:22.968Z,9.303131
2023-10-28T07:15:23.598Z,9.303128
2023-10-28T07:16:22.808Z,9.303141
2023-10-28T07:17:22.618Z,9.303099
2023-10-28T07:18:23.459Z,9.303092
2023-10-28T07:19:22.741Z,9.303172
2023-10-28T07:20:23.396Z,9.303134
2023-10-28T07:21:23.236Z,9.303106
2023-10-28T07:22:22.442Z,9.303082
2023-10-28T07:23:23.142Z,9.303141
2023-10-28T07:24:22.536Z,9.303205
2023-10-28T07:25:22.782Z,9.303021
2023-10-28T07:26:22.703Z,9.302977
2023-10-28T07:27:23.412Z,9.302935
2023-10-28T07:28:22.483Z,9.302954
2023-10-28T07:29:23.481Z,9.302987
2023-10-28T07:30:22.439Z,9.303016
2023-10-28T07:31:22.692Z,9.302947
2023-10-28T07:32:23.185Z,9.302960
2023-10-28T07:33:22.521Z,9.302976
2023-10-28T07:34:22.449Z,9.303097
2023-10-28T07:35:31.647Z,9.303144
2023-10-28T07:36:23.025Z,9.303103
2023-10-28T07:37:23.308Z,9.303159
2023-10-28T07:38:29.816Z,9.303260
2023-10-28T07:39:25.763Z,9.303263
2023-10-28T07:40:22.353Z,9.303240
2023-10-28T07:41:22.620Z,9.303223
2023-10-28T07:42:24.194Z,9.303116
2023-10-28T07:43:25.638Z,9.303102
2023-10-28T07:44:27.391Z,9.303231
2023-10-28T07:45:22.813Z,9.303122
2023-10-28T07:46:23.148Z,9.303101
2023-10-28T07:47:23.071Z,9.302971
2023-10-28T07:48:25.399Z,9.303004
2023-10-28T07:49:26.067Z,9.303025
2023-10-28T07:50:29.583Z,9.302981
2023-10-28T07:51:24.412Z,9.303035
2023-10-28T07:52:22.146Z,9.303142
2023-10-28T07:53:23.798Z,9.303041
2023-10-28T07:54:22.533Z,9.303246
2023-10-28T07:55:22.131Z,9.303230
2023-10-28T07:56:22.729Z,9.303229
2023-10-28T07:57:22.341Z,9.303175
2023-10-28T07:58:22.136Z,9.303265
2023-10-28T07:59:22.490Z,9.303252
2023-10-28T08:00:22.127Z,9.303219
2023-10-28T08:01:22.246Z,9.303189
2023-10-28T08:02:22.292Z,9.303211
2023-10-28T08:03:22.319Z,9.303246
2023-10-28T08:04:23.422Z,9.303205
2023-10-28T08:05:22.091Z,9.303175
2023-10-28T08:06:34.344Z,9.303291
2023-10-28T08:07:24.341Z,9.303243
2023-10-28T08:08:22.253Z,9.303135
2023-10-28T08:09:22.526Z,9.303155
2023-10-28T08:10:22.114Z,9.303116
2023-10-28T08:11:22.095Z,9.303155
2023-10-28T08:12:22.299Z,9.303152
2023-10-28T08:13:23.001Z,9.303156
2023-10-28T08:14:22.192Z,9.303107
2023-10-28T08:15:23.065Z,9.303214
2023-10-28T08:16:26.808Z,9.303196
2023-10-28T08:17:29.340Z,9.303118
2023-10-28T08:18:25.254Z,9.303117
2023-10-28T08:19:25.692Z,9.303145
2023-10-28T08:20:21.996Z,9.303119
2023-10-28T08:21:22.590Z,9.303164
2023-10-28T08:22:22.999Z,9.303098
2023-10-28T08:23:22.314Z,9.303199
2023-10-28T08:24:21.928Z,9.303219
2023-10-28T08:25:22.049Z,9.303210
2023-10-28T08:26:21.952Z,9.303065
2023-10-28T08:27:21.936Z,9.303063
2023-10-28T08:28:21.819Z,9.303085
2023-10-28T08:29:22.475Z,9.303181
2023-10-28T08:30:22.547Z,9.303106
2023-10-28T08:31:23.184Z,9.303200
2023-10-28T08:32:21.820Z,9.303171
2023-10-28T08:33:21.914Z,9.303170
2023-10-28T08:34:21.900Z,9.303287
2023-10-28T08:35:22.012Z,9.303129
2023-10-28T08:36:21.864Z,9.303286
2023-10-28T08:37:22.256Z,9.303186
2023-10-28T08:38:21.948Z,9.303258
2023-10-28T08:39:21.766Z,9.303150
2023-10-28T08:40:21.730Z,9.303218
2023-10-28T08:41:22.269Z,9.303151
2023-10-28T08:42:22.233Z,9.303179
2023-10-28T08:43:21.866Z,9.303357
2023-10-28T08:44:24.812Z,9.303337
2023-10-28T08:45:21.664Z,9.303256
2023-10-28T08:46:22.090Z,9.303140
2023-10-28T08:47:21.787Z,9.303204
2023-10-28T08:48:21.697Z,9.303193
2023-10-28T08:49:22.384Z,9.303184
2023-10-28T08:50:23.169Z,9.303047
2023-10-28T08:51:22.210Z,9.303020
2023-10-28T08:52:21.909Z,9.303142
2023-10-28T08:53:21.706Z,9.303109
2023-10-28T08:54:21.677Z,9.303099
2023-10-28T08:55:21.767Z,9.303162
2023-10-28T08:56:21.563Z,9.303146
2023-10-28T08:57:21.642Z,9.303286
2023-10-28T08:58:21.690Z,9.303131
2023-10-28T08:59:21.663Z,9.303177
2023-10-28T09:00:21.623Z,9.303350
2023-10-28T09:01:21.680Z,9.303318
2023-10-28T09:02:21.562Z,9.303059
2023-10-28T09:03:21.685Z,9.302930
2023-10-28T09:04:21.665Z,9.303007
2023-10-28T09:05:22.174Z,9.303163
2023-10-28T09:06:22.437Z,9.303033
2023-10-28T09:07:21.532Z,9.302786
2023-10-28T09:08:21.649Z,9.302956
2023-10-28T09:09:21.688Z,9.303150
2023-10-28T09:10:21.655Z,9.303184
2023-10-28T09:11:21.498Z,9.303229
2023-10-28T09:12:21.857Z,9.303111
2023-10-28T09:13:21.939Z,9.303142
2023-10-28T09:14:21.535Z,9.302968
2023-10-28T09:15:21.775Z,9.303029
2023-10-28T09:16:21.386Z,9.303232
2023-10-28T09:17:21.844Z,9.303101
2023-10-28T09:18:21.342Z,9.303086
2023-10-28T09:19:22.849Z,9.303036
2023-10-28T09:20:21.686Z,9.303016
2023-10-28T09:21:21.388Z,9.302836
2023-10-28T09:22:21.392Z,9.302707
2023-10-28T09:23:21.419Z,9.302768
2023-10-28T09:24:21.681Z,9.302877
2023-10-28T09:25:21.506Z,9.302919
2023-10-28T09:26:21.685Z,9.303094
2023-10-28T09:27:21.333Z,9.303089
2023-10-28T09:28:21.385Z,9.302906
2023-10-28T09:29:21.680Z,9.302955
2023-10-28T09:30:22.091Z,9.303113
2023-10-28T09:31:21.242Z,9.302925
2023-10-28T09:32:21.265Z,9.302993
2023-10-28T09:33:21.433Z,9.303123
2023-10-28T09:34:21.368Z,9.303193
2023-10-28T09:35:21.177Z,9.303113
2023-10-28T09:36:21.992Z,9.303130
2023-10-28T09:37:21.247Z,9.303097
2023-10-28T09:38:21.381Z,9.303060
2023-10-28T09:39:21.244Z,9.303127
2023-10-28T09:40:21.274Z,9.303126
2023-10-28T09:41:21.507Z,9.303014
2023-10-28T09:42:21.403Z,9.303034
2023-10-28T09:43:21.181Z,9.303073
2023-10-28T09:44:21.143Z,9.303102
2023-10-28T09:45:21.081Z,9.303183
2023-10-28T09:46:21.240Z,9.303019
2023-10-28T09:47:21.103Z,9.302971
2023-10-28T09:48:21.120Z,9.303020
2023-10-28T09:49:21.411Z,9.303042
2023-10-28T09:50:21.249Z,9.303010
2023-10-28T09:51:21.213Z,9.303127
2023-10-28T09:52:21.065Z,9.303020
2023-10-28T09:53:21.273Z,9.303075
2023-10-28T09:54:21.196Z,9.303145
2023-10-28T09:55:21.062Z,9.303097
2023-10-28T09:56:21.089Z,9.303061
2023-10-28T09:57:22.391Z,9.303162
2023-10-28T09:58:21.169Z,9.302897
2023-10-28T09:59:21.097Z,9.302914
2023-10-28T10:00:24.448Z,9.302915
2023-10-28T10:01:22.007Z,9.302973
2023-10-28T10:02:21.173Z,9.303155
2023-10-28T10:03:21.004Z,9.302998
2023-10-28T10:04:20.954Z,9.302923
2023-10-28T10:05:22.516Z,9.302935
2023-10-28T10:06:20.920Z,9.303015
2023-10-28T10:07:20.972Z,9.302965
2023-10-28T10:08:20.982Z,9.302843
2023-10-28T10:09:20.970Z,9.302832
2023-10-28T10:10:20.867Z,9.303070
2023-10-28T10:11:20.860Z,9.303016
2023-10-28T10:12:20.951Z,9.302963
2023-10-28T10:13:30.790Z,9.302975
2023-10-28T10:14:22.028Z,9.303012
2023-10-28T10:15:24.341Z,9.303023
2023-10-28T10:16:21.141Z,9.303013
2023-10-28T10:17:21.604Z,9.303031
2023-10-28T10:18:20.806Z,9.303055
2023-10-28T10:19:20.906Z,9.303069
2023-10-28T10:20:21.404Z,9.302964
2023-10-28T10:21:20.950Z,9.303048
2023-10-28T10:22:20.779Z,9.303055
2023-10-28T10:23:22.103Z,9.303077
2023-10-28T10:24:20.738Z,9.303057
2023-10-28T10:25:20.851Z,9.303025
2023-10-28T10:26:20.783Z,9.303042
2023-10-28T10:27:23.476Z,9.303047
2023-10-28T10:28:20.925Z,9.303006
2023-10-28T10:29:24.857Z,9.302994
2023-10-28T10:30:24.875Z,9.302981
